sensor_id;sensor_type;location;lat;lon;timestamp;P1;durP1;ratioP1;P2;durP2;ratioP2
10565;SDS011;5331;48.148;16.326;2023-11-19T00:08:08;9.07;;;7.20;;
10565;SDS011;5331;48.148;16.326;2023-11-19T00:10:35;10.80;;;7.60;;
10565;SDS011;5331;48.148;16.326;2023-11-19T00:13:01;8.97;;;7.60;;
10565;SDS011;5331;48.148;16.326;2023-11-19T00:15:28;9.80;;;8.40;;
10565;SDS011;5331;48.148;16.326;2023-11-19T00:17:54;10.03;;;8.93;;
10565;SDS011;5331;48.148;16.326;2023-11-19T00:20:20;10.77;;;8.80;;
10565;SDS011;5331;48.148;16.326;2023-11-19T00:22:47;9.80;;;8.80;;
10565;SDS011;5331;48.148;16.326;2023-11-19T00:43:03;9.77;;;8.50;;
10565;SDS011;5331;48.148;16.326;2023-11-19T00:45:29;10.07;;;8.70;;
10565;SDS011;5331;48.148;16.326;2023-11-19T00:47:55;9.13;;;8.23;;
10565;SDS011;5331;48.148;16.326;2023-11-19T00:50:21;9.93;;;8.60;;
10565;SDS011;5331;48.148;16.326;2023-11-19T00:52:47;10.03;;;8.13;;
10565;SDS011;5331;48.148;16.326;2023-11-19T00:55:14;10.37;;;8.93;;
10565;SDS011;5331;48.148;16.326;2023-11-19T00:57:40;9.90;;;8.83;;
10565;SDS011;5331;48.148;16.326;2023-11-19T01:17:45;11.40;;;8.90;;
10565;SDS011;5331;48.148;16.326;2023-11-19T01:20:11;9.47;;;8.30;;
10565;SDS011;5331;48.148;16.326;2023-11-19T01:22:38;10.47;;;8.37;;
10565;SDS011;5331;48.148;16.326;2023-11-19T01:25:05;9.77;;;8.13;;
10565;SDS011;5331;48.148;16.326;2023-11-19T01:27:31;9.37;;;8.33;;
10565;SDS011;5331;48.148;16.326;2023-11-19T01:30:00;8.90;;;7.70;;
10565;SDS011;5331;48.148;16.326;2023-11-19T01:32:27;9.80;;;8.47;;
10565;SDS011;5331;48.148;16.326;2023-11-19T01:52:40;8.97;;;8.07;;
10565;SDS011;5331;48.148;16.326;2023-11-19T01:55:07;10.67;;;8.50;;
10565;SDS011;5331;48.148;16.326;2023-11-19T01:57:34;11.73;;;8.50;;
10565;SDS011;5331;48.148;16.326;2023-11-19T02:00:02;10.37;;;8.57;;
10565;SDS011;5331;48.148;16.326;2023-11-19T02:02:29;8.93;;;7.97;;
10565;SDS011;5331;48.148;16.326;2023-11-19T02:04:55;9.47;;;8.47;;
10565;SDS011;5331;48.148;16.326;2023-11-19T02:07:22;9.40;;;8.40;;
10565;SDS011;5331;48.148;16.326;2023-11-19T02:22:59;7.93;;;7.13;;
10565;SDS011;5331;48.148;16.326;2023-11-19T02:25:27;7.53;;;6.73;;
10565;SDS011;5331;48.148;16.326;2023-11-19T02:27:58;6.10;;;5.60;;
10565;SDS011;5331;48.148;16.326;2023-11-19T02:30:26;6.33;;;5.73;;
10565;SDS011;5331;48.148;16.326;2023-11-19T02:32:53;6.37;;;5.70;;
10565;SDS011;5331;48.148;16.326;2023-11-19T02:35:22;5.87;;;5.03;;
10565;SDS011;5331;48.148;16.326;2023-11-19T02:37:48;5.50;;;5.00;;
10565;SDS011;5331;48.148;16.326;2023-11-19T02:54:25;5.20;;;4.80;;
10565;SDS011;5331;48.148;16.326;2023-11-19T02:56:52;5.87;;;5.33;;
10565;SDS011;5331;48.148;16.326;2023-11-19T02:59:24;5.67;;;5.17;;
10565;SDS011;5331;48.148;16.326;2023-11-19T03:01:52;6.40;;;5.80;;
10565;SDS011;5331;48.148;16.326;2023-11-19T03:04:20;5.90;;;5.40;;
10565;SDS011;5331;48.148;16.326;2023-11-19T03:06:48;6.30;;;5.70;;
10565;SDS011;5331;48.148;16.326;2023-11-19T03:09:14;6.67;;;6.07;;
10565;SDS011;5331;48.148;16.326;2023-11-19T03:29:03;6.20;;;5.60;;
10565;SDS011;5331;48.148;16.326;2023-11-19T03:31:29;6.47;;;5.87;;
10565;SDS011;5331;48.148;16.326;2023-11-19T03:33:56;5.97;;;5.47;;
10565;SDS011;5331;48.148;16.326;2023-11-19T03:36:22;7.07;;;6.30;;
10565;SDS011;5331;48.148;16.326;2023-11-19T03:38:48;6.93;;;6.30;;
10565;SDS011;5331;48.148;16.326;2023-11-19T03:41:14;6.57;;;5.97;;
10565;SDS011;5331;48.148;16.326;2023-11-19T03:43:42;6.83;;;6.23;;
10565;SDS011;5331;48.148;16.326;2023-11-19T04:01:42;6.57;;;5.87;;
10565;SDS011;5331;48.148;16.326;2023-11-19T04:04:09;7.00;;;6.00;;
10565;SDS011;5331;48.148;16.326;2023-11-19T04:06:35;7.13;;;6.43;;
10565;SDS011;5331;48.148;16.326;2023-11-19T04:09:01;6.67;;;6.07;;
10565;SDS011;5331;48.148;16.326;2023-11-19T04:11:27;6.83;;;6.23;;
10565;SDS011;5331;48.148;16.326;2023-11-19T04:13:53;6.87;;;6.17;;
10565;SDS011;5331;48.148;16.326;2023-11-19T04:16:19;7.50;;;6.80;;
10565;SDS011;5331;48.148;16.326;2023-11-19T04:34:20;7.70;;;6.30;;
10565;SDS011;5331;48.148;16.326;2023-11-19T04:36:46;8.40;;;7.10;;
10565;SDS011;5331;48.148;16.326;2023-11-19T04:39:13;7.53;;;6.83;;
10565;SDS011;5331;48.148;16.326;2023-11-19T04:41:46;8.83;;;8.03;;
10565;SDS011;5331;48.148;16.326;2023-11-19T04:44:13;8.60;;;7.70;;
10565;SDS011;5331;48.148;16.326;2023-11-19T04:46:40;9.33;;;8.40;;
10565;SDS011;5331;48.148;16.326;2023-11-19T04:49:08;8.87;;;7.97;;
10565;SDS011;5331;48.148;16.326;2023-11-19T05:04:45;8.37;;;7.57;;
10565;SDS011;5331;48.148;16.326;2023-11-19T05:07:12;9.03;;;7.70;;
10565;SDS011;5331;48.148;16.326;2023-11-19T05:09:38;8.57;;;7.70;;
10565;SDS011;5331;48.148;16.326;2023-11-19T05:12:04;8.63;;;7.73;;
10565;SDS011;5331;48.148;16.326;2023-11-19T05:14:33;9.97;;;7.83;;
10565;SDS011;5331;48.148;16.326;2023-11-19T05:16:59;11.27;;;8.47;;
10565;SDS011;5331;48.148;16.326;2023-11-19T05:19:25;9.10;;;8.20;;
10565;SDS011;5331;48.148;16.326;2023-11-19T05:35:06;9.37;;;8.20;;
10565;SDS011;5331;48.148;16.326;2023-11-19T05:37:33;9.80;;;8.00;;
10565;SDS011;5331;48.148;16.326;2023-11-19T05:40:00;9.60;;;8.60;;
10565;SDS011;5331;48.148;16.326;2023-11-19T05:42:28;9.27;;;8.37;;
10565;SDS011;5331;48.148;16.326;2023-11-19T05:44:54;10.20;;;9.20;;
10565;SDS011;5331;48.148;16.326;2023-11-19T05:47:20;10.17;;;8.77;;
10565;SDS011;5331;48.148;16.326;2023-11-19T05:49:46;11.17;;;9.50;;
10565;SDS011;5331;48.148;16.326;2023-11-19T06:06:03;12.77;;;11.37;;
10565;SDS011;5331;48.148;16.326;2023-11-19T06:08:30;13.90;;;11.47;;
10565;SDS011;5331;48.148;16.326;2023-11-19T06:10:56;12.67;;;11.27;;
10565;SDS011;5331;48.148;16.326;2023-11-19T06:13:23;13.40;;;12.00;;
10565;SDS011;5331;48.148;16.326;2023-11-19T06:15:50;14.37;;;11.80;;
10565;SDS011;5331;48.148;16.326;2023-11-19T06:18:16;13.93;;;12.10;;
10565;SDS011;5331;48.148;16.326;2023-11-19T06:20:44;14.80;;;11.97;;
10565;SDS011;5331;48.148;16.326;2023-11-19T06:38:43;13.30;;;11.90;;
10565;SDS011;5331;48.148;16.326;2023-11-19T06:41:09;13.33;;;11.93;;
10565;SDS011;5331;48.148;16.326;2023-11-19T06:43:36;13.23;;;10.97;;
10565;SDS011;5331;48.148;16.326;2023-11-19T06:46:03;14.20;;;11.60;;
10565;SDS011;5331;48.148;16.326;2023-11-19T06:48:31;13.10;;;11.70;;
10565;SDS011;5331;48.148;16.326;2023-11-19T06:50:57;11.97;;;10.77;;
10565;SDS011;5331;48.148;16.326;2023-11-19T06:53:23;13.67;;;11.23;;
10565;SDS011;5331;48.148;16.326;2023-11-19T07:11:19;13.17;;;11.23;;
10565;SDS011;5331;48.148;16.326;2023-11-19T07:13:45;11.87;;;9.50;;
10565;SDS011;5331;48.148;16.326;2023-11-19T07:16:13;11.70;;;10.13;;
10565;SDS011;5331;48.148;16.326;2023-11-19T07:18:40;11.90;;;10.70;;
10565;SDS011;5331;48.148;16.326;2023-11-19T07:21:07;11.93;;;10.73;;
10565;SDS011;5331;48.148;16.326;2023-11-19T07:23:35;12.10;;;10.37;;
10565;SDS011;5331;48.148;16.326;2023-11-19T07:26:01;12.27;;;10.97;;
10565;SDS011;5331;48.148;16.326;2023-11-19T07:46:26;12.30;;;11.00;;
10565;SDS011;5331;48.148;16.326;2023-11-19T07:48:53;12.33;;;10.97;;
10565;SDS011;5331;48.148;16.326;2023-11-19T07:51:19;12.80;;;11.03;;
10565;SDS011;5331;48.148;16.326;2023-11-19T07:53:45;13.37;;;11.23;;
10565;SDS011;5331;48.148;16.326;2023-11-19T07:56:11;13.70;;;12.30;;
10565;SDS011;5331;48.148;16.326;2023-11-19T07:58:37;15.03;;;12.67;;
10565;SDS011;5331;48.148;16.326;2023-11-19T08:01:04;13.57;;;11.93;;
10565;SDS011;5331;48.148;16.326;2023-11-19T08:19:00;14.83;;;11.67;;
10565;SDS011;5331;48.148;16.326;2023-11-19T08:21:26;13.90;;;11.00;;
10565;SDS011;5331;48.148;16.326;2023-11-19T08:23:53;12.50;;;10.60;;
10565;SDS011;5331;48.148;16.326;2023-11-19T08:26:19;13.17;;;11.07;;
10565;SDS011;5331;48.148;16.326;2023-11-19T08:28:46;12.10;;;10.70;;
10565;SDS011;5331;48.148;16.326;2023-11-19T08:31:13;13.17;;;11.60;;
10565;SDS011;5331;48.148;16.326;2023-11-19T08:33:39;15.57;;;12.23;;
10565;SDS011;5331;48.148;16.326;2023-11-19T08:49:08;12.27;;;10.50;;
10565;SDS011;5331;48.148;16.326;2023-11-19T08:51:35;10.90;;;9.80;;
10565;SDS011;5331;48.148;16.326;2023-11-19T08:54:01;10.83;;;9.33;;
10565;SDS011;5331;48.148;16.326;2023-11-19T08:56:27;10.20;;;9.20;;
10565;SDS011;5331;48.148;16.326;2023-11-19T08:58:57;9.87;;;8.97;;
10565;SDS011;5331;48.148;16.326;2023-11-19T09:01:24;10.13;;;9.03;;
10565;SDS011;5331;48.148;16.326;2023-11-19T09:03:50;11.97;;;10.60;;
10565;SDS011;5331;48.148;16.326;2023-11-19T09:20:05;9.63;;;8.17;;
10565;SDS011;5331;48.148;16.326;2023-11-19T09:22:32;9.33;;;8.17;;
10565;SDS011;5331;48.148;16.326;2023-11-19T09:24:58;9.13;;;8.23;;
10565;SDS011;5331;48.148;16.326;2023-11-19T09:27:25;8.90;;;8.00;;
10565;SDS011;5331;48.148;16.326;2023-11-19T09:29:51;10.07;;;9.03;;
10565;SDS011;5331;48.148;16.326;2023-11-19T09:32:22;9.23;;;8.33;;
10565;SDS011;5331;48.148;16.326;2023-11-19T09:34:48;8.87;;;7.97;;
10565;SDS011;5331;48.148;16.326;2023-11-19T09:52:43;9.57;;;8.57;;
10565;SDS011;5331;48.148;16.326;2023-11-19T09:55:10;8.30;;;7.50;;
10565;SDS011;5331;48.148;16.326;2023-11-19T09:57:36;8.07;;;7.30;;
10565;SDS011;5331;48.148;16.326;2023-11-19T10:00:05;9.07;;;8.13;;
10565;SDS011;5331;48.148;16.326;2023-11-19T10:02:33;8.30;;;7.50;;
10565;SDS011;5331;48.148;16.326;2023-11-19T10:05:02;9.40;;;8.50;;
10565;SDS011;5331;48.148;16.326;2023-11-19T10:07:31;9.43;;;8.53;;
10565;SDS011;5331;48.148;16.326;2023-11-19T10:25:26;8.43;;;7.47;;
10565;SDS011;5331;48.148;16.326;2023-11-19T10:27:54;8.00;;;7.23;;
10565;SDS011;5331;48.148;16.326;2023-11-19T10:30:21;8.07;;;7.27;;
10565;SDS011;5331;48.148;16.326;2023-11-19T10:33:04;8.07;;;6.63;;
10565;SDS011;5331;48.148;16.326;2023-11-19T10:35:32;8.80;;;7.90;;
10565;SDS011;5331;48.148;16.326;2023-11-19T10:37:59;7.97;;;7.17;;
10565;SDS011;5331;48.148;16.326;2023-11-19T10:40:38;7.50;;;6.80;;
10565;SDS011;5331;48.148;16.326;2023-11-19T10:58:34;7.37;;;6.60;;
10565;SDS011;5331;48.148;16.326;2023-11-19T11:01:03;8.60;;;7.80;;
10565;SDS011;5331;48.148;16.326;2023-11-19T11:03:36;7.17;;;6.47;;
10565;SDS011;5331;48.148;16.326;2023-11-19T11:06:05;7.27;;;6.57;;
10565;SDS011;5331;48.148;16.326;2023-11-19T11:08:32;7.50;;;6.80;;
10565;SDS011;5331;48.148;16.326;2023-11-19T11:11:02;7.63;;;6.93;;
10565;SDS011;5331;48.148;16.326;2023-11-19T11:13:31;8.20;;;7.40;;
10565;SDS011;5331;48.148;16.326;2023-11-19T11:31:35;7.20;;;6.57;;
10565;SDS011;5331;48.148;16.326;2023-11-19T11:34:13;8.33;;;7.53;;
10565;SDS011;5331;48.148;16.326;2023-11-19T11:36:55;7.83;;;7.10;;
10565;SDS011;5331;48.148;16.326;2023-11-19T11:39:28;7.67;;;6.87;;
10565;SDS011;5331;48.148;16.326;2023-11-19T11:44:57;9.30;;;7.87;;
10565;SDS011;5331;48.148;16.326;2023-11-19T12:03:40;7.13;;;6.43;;
10565;SDS011;5331;48.148;16.326;2023-11-19T12:06:07;7.10;;;6.40;;
10565;SDS011;5331;48.148;16.326;2023-11-19T12:08:34;7.87;;;7.07;;
10565;SDS011;5331;48.148;16.326;2023-11-19T12:11:22;7.20;;;6.50;;
10565;SDS011;5331;48.148;16.326;2023-11-19T12:18:18;9.27;;;8.07;;
10565;SDS011;5331;48.148;16.326;2023-11-19T12:21:12;8.40;;;7.57;;
10565;SDS011;5331;48.148;16.326;2023-11-19T12:24:09;9.47;;;8.47;;
10565;SDS011;5331;48.148;16.326;2023-11-19T12:52:18;9.20;;;8.30;;
10565;SDS011;5331;48.148;16.326;2023-11-19T12:58:28;9.07;;;7.57;;
10565;SDS011;5331;48.148;16.326;2023-11-19T13:03:47;9.67;;;8.27;;
10565;SDS011;5331;48.148;16.326;2023-11-19T13:06:18;9.80;;;8.67;;
10565;SDS011;5331;48.148;16.326;2023-11-19T13:24:01;9.13;;;8.23;;
10565;SDS011;5331;48.148;16.326;2023-11-19T13:26:27;10.93;;;9.37;;
10565;SDS011;5331;48.148;16.326;2023-11-19T13:28:54;9.30;;;8.40;;
10565;SDS011;5331;48.148;16.326;2023-11-19T13:31:20;9.60;;;8.70;;
10565;SDS011;5331;48.148;16.326;2023-11-19T13:33:47;10.77;;;8.83;;
10565;SDS011;5331;48.148;16.326;2023-11-19T13:36:13;10.20;;;7.93;;
10565;SDS011;5331;48.148;16.326;2023-11-19T13:38:40;11.80;;;9.13;;
10565;SDS011;5331;48.148;16.326;2023-11-19T13:56:29;9.80;;;8.90;;
10565;SDS011;5331;48.148;16.326;2023-11-19T13:58:55;10.03;;;9.03;;
10565;SDS011;5331;48.148;16.326;2023-11-19T14:01:21;9.80;;;8.33;;
10565;SDS011;5331;48.148;16.326;2023-11-19T14:03:48;9.47;;;8.47;;
10565;SDS011;5331;48.148;16.326;2023-11-19T14:06:14;9.73;;;8.73;;
10565;SDS011;5331;48.148;16.326;2023-11-19T14:08:40;10.03;;;8.67;;
10565;SDS011;5331;48.148;16.326;2023-11-19T14:11:07;10.27;;;9.17;;
10565;SDS011;5331;48.148;16.326;2023-11-19T14:31:04;9.73;;;8.82;;
10565;SDS011;5331;48.148;16.326;2023-11-19T14:33:32;9.77;;;8.73;;
10565;SDS011;5331;48.148;16.326;2023-11-19T14:36:00;9.50;;;8.43;;
10565;SDS011;5331;48.148;16.326;2023-11-19T14:38:26;10.27;;;8.53;;
10565;SDS011;5331;48.148;16.326;2023-11-19T14:40:53;10.07;;;9.07;;
10565;SDS011;5331;48.148;16.326;2023-11-19T14:43:20;12.83;;;9.73;;
10565;SDS011;5331;48.148;16.326;2023-11-19T14:45:47;11.53;;;9.70;;
10565;SDS011;5331;48.148;16.326;2023-11-19T15:03:43;11.23;;;10.10;;
10565;SDS011;5331;48.148;16.326;2023-11-19T15:06:12;10.68;;;8.60;;
10565;SDS011;5331;48.148;16.326;2023-11-19T15:08:38;11.57;;;9.67;;
10565;SDS011;5331;48.148;16.326;2023-11-19T15:11:05;11.13;;;9.27;;
10565;SDS011;5331;48.148;16.326;2023-11-19T15:13:32;12.47;;;9.80;;
10565;SDS011;5331;48.148;16.326;2023-11-19T15:15:58;14.33;;;11.97;;
10565;SDS011;5331;48.148;16.326;2023-11-19T15:18:25;11.97;;;10.63;;
10565;SDS011;5331;48.148;16.326;2023-11-19T15:38:07;12.23;;;10.93;;
10565;SDS011;5331;48.148;16.326;2023-11-19T15:40:34;12.47;;;10.13;;
10565;SDS011;5331;48.148;16.326;2023-11-19T15:43:01;11.73;;;9.33;;
10565;SDS011;5331;48.148;16.326;2023-11-19T15:45:27;9.27;;;8.27;;
10565;SDS011;5331;48.148;16.326;2023-11-19T15:47:53;10.30;;;9.20;;
10565;SDS011;5331;48.148;16.326;2023-11-19T15:50:20;10.27;;;9.20;;
10565;SDS011;5331;48.148;16.326;2023-11-19T15:52:46;12.03;;;10.70;;
10565;SDS011;5331;48.148;16.326;2023-11-19T16:10:39;14.30;;;11.32;;
10565;SDS011;5331;48.148;16.326;2023-11-19T16:13:08;12.47;;;10.77;;
10565;SDS011;5331;48.148;16.326;2023-11-19T16:15:34;12.87;;;10.47;;
10565;SDS011;5331;48.148;16.326;2023-11-19T16:18:00;12.53;;;10.50;;
10565;SDS011;5331;48.148;16.326;2023-11-19T16:20:26;11.47;;;10.27;;
10565;SDS011;5331;48.148;16.326;2023-11-19T16:22:53;16.33;;;12.10;;
10565;SDS011;5331;48.148;16.326;2023-11-19T16:25:19;12.97;;;10.90;;
10565;SDS011;5331;48.148;16.326;2023-11-19T16:27:46;11.53;;;10.33;;
10565;SDS011;5331;48.148;16.326;2023-11-19T16:45:36;15.60;;;12.63;;
10565;SDS011;5331;48.148;16.326;2023-11-19T16:48:02;14.03;;;11.80;;
10565;SDS011;5331;48.148;16.326;2023-11-19T16:50:29;15.37;;;12.20;;
10565;SDS011;5331;48.148;16.326;2023-11-19T16:52:56;14.40;;;12.07;;
10565;SDS011;5331;48.148;16.326;2023-11-19T16:55:22;15.63;;;12.60;;
10565;SDS011;5331;48.148;16.326;2023-11-19T16:57:50;12.80;;;11.50;;
10565;SDS011;5331;48.148;16.326;2023-11-19T17:00:17;13.53;;;12.13;;
10565;SDS011;5331;48.148;16.326;2023-11-19T17:18:10;18.23;;;13.67;;
10565;SDS011;5331;48.148;16.326;2023-11-19T17:20:36;22.70;;;16.77;;
10565;SDS011;5331;48.148;16.326;2023-11-19T17:23:04;19.80;;;16.47;;
10565;SDS011;5331;48.148;16.326;2023-11-19T17:25:30;22.63;;;17.17;;
10565;SDS011;5331;48.148;16.326;2023-11-19T17:27:56;31.60;;;22.77;;
10565;SDS011;5331;48.148;16.326;2023-11-19T17:30:22;29.77;;;22.67;;
10565;SDS011;5331;48.148;16.326;2023-11-19T17:32:49;25.47;;;19.70;;
10565;SDS011;5331;48.148;16.326;2023-11-19T17:53:04;21.47;;;18.50;;
10565;SDS011;5331;48.148;16.326;2023-11-19T17:55:30;25.33;;;20.97;;
10565;SDS011;5331;48.148;16.326;2023-11-19T17:57:57;20.73;;;18.43;;
10565;SDS011;5331;48.148;16.326;2023-11-19T18:00:23;21.40;;;19.10;;
10565;SDS011;5331;48.148;16.326;2023-11-19T18:02:49;22.70;;;19.80;;
10565;SDS011;5331;48.148;16.326;2023-11-19T18:05:17;21.73;;;19.43;;
10565;SDS011;5331;48.148;16.326;2023-11-19T18:07:45;25.73;;;20.20;;
10565;SDS011;5331;48.148;16.326;2023-11-19T18:25:38;34.33;;;26.57;;
10565;SDS011;5331;48.148;16.326;2023-11-19T18:28:04;27.80;;;22.20;;
10565;SDS011;5331;48.148;16.326;2023-11-19T18:30:31;27.67;;;21.93;;
10565;SDS011;5331;48.148;16.326;2023-11-19T18:33:00;28.17;;;23.57;;
10565;SDS011;5331;48.148;16.326;2023-11-19T18:35:28;24.60;;;19.60;;
10565;SDS011;5331;48.148;16.326;2023-11-19T18:37:57;31.57;;;25.63;;
10565;SDS011;5331;48.148;16.326;2023-11-19T18:40:25;28.50;;;23.53;;
10565;SDS011;5331;48.148;16.326;2023-11-19T18:58:24;32.80;;;24.93;;
10565;SDS011;5331;48.148;16.326;2023-11-19T19:00:52;33.13;;;25.80;;
10565;SDS011;5331;48.148;16.326;2023-11-19T19:03:20;31.37;;;22.30;;
10565;SDS011;5331;48.148;16.326;2023-11-19T19:05:49;28.53;;;22.67;;
10565;SDS011;5331;48.148;16.326;2023-11-19T19:08:18;33.67;;;25.60;;
10565;SDS011;5331;48.148;16.326;2023-11-19T19:10:47;41.13;;;29.07;;
10565;SDS011;5331;48.148;16.326;2023-11-19T19:13:14;40.00;;;29.23;;
10565;SDS011;5331;48.148;16.326;2023-11-19T19:31:12;26.87;;;21.37;;
10565;SDS011;5331;48.148;16.326;2023-11-19T19:33:42;29.80;;;22.53;;
10565;SDS011;5331;48.148;16.326;2023-11-19T19:36:09;29.83;;;23.33;;
10565;SDS011;5331;48.148;16.326;2023-11-19T19:38:35;30.43;;;24.23;;
10565;SDS011;5331;48.148;16.326;2023-11-19T19:41:01;33.43;;;26.70;;
10565;SDS011;5331;48.148;16.326;2023-11-19T19:43:29;31.87;;;25.83;;
10565;SDS011;5331;48.148;16.326;2023-11-19T19:45:55;32.73;;;26.23;;
10565;SDS011;5331;48.148;16.326;2023-11-19T20:03:50;25.67;;;20.57;;
10565;SDS011;5331;48.148;16.326;2023-11-19T20:06:16;23.60;;;18.73;;
10565;SDS011;5331;48.148;16.326;2023-11-19T20:08:46;23.50;;;19.23;;
10565;SDS011;5331;48.148;16.326;2023-11-19T20:11:14;24.67;;;20.33;;
10565;SDS011;5331;48.148;16.326;2023-11-19T20:13:40;25.03;;;19.63;;
10565;SDS011;5331;48.148;16.326;2023-11-19T20:16:07;23.63;;;18.93;;
10565;SDS011;5331;48.148;16.326;2023-11-19T20:18:35;22.10;;;17.60;;
10565;SDS011;5331;48.148;16.326;2023-11-19T20:36:27;19.43;;;16.73;;
10565;SDS011;5331;48.148;16.326;2023-11-19T20:38:53;20.17;;;15.57;;
10565;SDS011;5331;48.148;16.326;2023-11-19T20:41:21;19.10;;;15.90;;
10565;SDS011;5331;48.148;16.326;2023-11-19T20:43:47;21.43;;;16.07;;
10565;SDS011;5331;48.148;16.326;2023-11-19T20:46:13;19.10;;;16.10;;
10565;SDS011;5331;48.148;16.326;2023-11-19T20:48:39;22.10;;;17.60;;
10565;SDS011;5331;48.148;16.326;2023-11-19T20:51:06;24.50;;;19.57;;
10565;SDS011;5331;48.148;16.326;2023-11-19T21:09:02;22.23;;;16.47;;
10565;SDS011;5331;48.148;16.326;2023-11-19T21:11:28;22.93;;;18.53;;
10565;SDS011;5331;48.148;16.326;2023-11-19T21:13:54;23.50;;;18.93;;
10565;SDS011;5331;48.148;16.326;2023-11-19T21:16:21;24.50;;;19.60;;
10565;SDS011;5331;48.148;16.326;2023-11-19T21:18:48;27.47;;;21.30;;
10565;SDS011;5331;48.148;16.326;2023-11-19T21:21:21;25.57;;;20.43;;
10565;SDS011;5331;48.148;16.326;2023-11-19T21:38:53;24.87;;;19.60;;
10565;SDS011;5331;48.148;16.326;2023-11-19T21:41:19;24.67;;;19.27;;
10565;SDS011;5331;48.148;16.326;2023-11-19T21:43:47;24.40;;;18.93;;
10565;SDS011;5331;48.148;16.326;2023-11-19T21:46:13;24.47;;;19.20;;
10565;SDS011;5331;48.148;16.326;2023-11-19T21:48:41;25.03;;;19.80;;
10565;SDS011;5331;48.148;16.326;2023-11-19T21:51:08;26.00;;;19.63;;
10565;SDS011;5331;48.148;16.326;2023-11-19T22:09:02;18.30;;;15.30;;
10565;SDS011;5331;48.148;16.326;2023-11-19T22:11:30;18.07;;;14.83;;
10565;SDS011;5331;48.148;16.326;2023-11-19T22:13:58;18.93;;;15.13;;
10565;SDS011;5331;48.148;16.326;2023-11-19T22:16:25;18.17;;;15.73;;
10565;SDS011;5331;48.148;16.326;2023-11-19T22:18:52;21.10;;;16.30;;
10565;SDS011;5331;48.148;16.326;2023-11-19T22:21:22;19.70;;;17.13;;
10565;SDS011;5331;48.148;16.326;2023-11-19T22:38:41;20.10;;;15.80;;
10565;SDS011;5331;48.148;16.326;2023-11-19T22:41:09;20.90;;;17.23;;
10565;SDS011;5331;48.148;16.326;2023-11-19T22:43:35;17.50;;;13.20;;
10565;SDS011;5331;48.148;16.326;2023-11-19T22:46:03;20.40;;;14.17;;
10565;SDS011;5331;48.148;16.326;2023-11-19T22:48:32;19.80;;;15.67;;
10565;SDS011;5331;48.148;16.326;2023-11-19T22:51:03;23.57;;;17.43;;
10565;SDS011;5331;48.148;16.326;2023-11-19T23:06:47;2.60;;;2.40;;
10565;SDS011;5331;48.148;16.326;2023-11-19T23:09:13;2.10;;;2.00;;
10565;SDS011;5331;48.148;16.326;2023-11-19T23:11:39;1.80;;;1.70;;
10565;SDS011;5331;48.148;16.326;2023-11-19T23:14:07;2.65;;;2.00;;
10565;SDS011;5331;48.148;16.326;2023-11-19T23:16:36;1.83;;;1.73;;
10565;SDS011;5331;48.148;16.326;2023-11-19T23:19:03;3.33;;;1.80;;
10565;SDS011;5331;48.148;16.326;2023-11-19T23:21:29;1.98;;;1.77;;
10565;SDS011;5331;48.148;16.326;2023-11-19T23:39:19;2.22;;;1.92;;
10565;SDS011;5331;48.148;16.326;2023-11-19T23:41:45;2.20;;;2.00;;
10565;SDS011;5331;48.148;16.326;2023-11-19T23:44:11;2.30;;;2.10;;
10565;SDS011;5331;48.148;16.326;2023-11-19T23:46:38;2.93;;;2.30;;
10565;SDS011;5331;48.148;16.326;2023-11-19T23:49:04;4.05;;;2.30;;
10565;SDS011;5331;48.148;16.326;2023-11-19T23:51:30;1.98;;;1.88;;
10565;SDS011;5331;48.148;16.326;2023-11-19T23:53:56;2.33;;;2.13;;
